Time;durP1;ratioP1;P1;durP2;ratioP2;P2;SDS_P1;SDS_P2;PMS_P1;PMS_P2;Temp;Humidity;BMP_temperature;BMP_pressure;BME280_temperature;BME280_humidity;BME280_pressure;Samples;Min_cycle;Max_cycle;Signal;HPM_P1;HPM_P2
2021/10/07 00:01:46;;;;;;;2.67;1.17;;;;;;;9.43;100.00;101372.28;5258214;28;20030;-78
2021/10/07 00:04:17;;;;;;;4.38;0.95;;;;;;;9.50;100.00;101373.91;5257509;28;20561;-78
2021/10/07 00:06:47;;;;;;;2.97;1.10;;;;;;;9.49;100.00;101377.41;5254959;28;20077;-78
2021/10/07 00:09:18;;;;;;;1.55;0.82;;;;;;;9.46;100.00;101383.53;5278814;28;20020;-78
2021/10/07 00:11:48;;;;;;;1.13;0.82;;;;;;;9.29;100.00;101379.50;5264191;28;20023;-78
2021/10/07 00:14:19;;;;;;;2.50;1.00;;;;;;;9.37;100.00;101385.44;5280103;28;20027;-79
2021/10/07 00:16:50;;;;;;;1.42;0.75;;;;;;;9.28;100.00;101393.44;5264077;28;20059;-78
2021/10/07 00:19:20;;;;;;;2.28;0.98;;;;;;;9.21;100.00;101397.03;5262578;28;20023;-78
2021/10/07 00:21:51;;;;;;;2.17;1.00;;;;;;;9.20;100.00;101390.09;5281864;28;20031;-78
2021/10/07 00:24:21;;;;;;;1.35;0.95;;;;;;;9.22;100.00;101393.53;5280618;28;20028;-78
2021/10/07 00:26:52;;;;;;;2.88;0.98;;;;;;;9.08;100.00;101395.50;5278191;28;20028;-78
2021/10/07 00:29:43;;;;;;;3.38;1.20;;;;;;;9.06;100.00;101397.28;5278112;28;20569;-78
2021/10/07 00:32:20;;;;;;;1.95;0.70;;;;;;;9.08;100.00;101395.50;5267284;22;20407;-77
2021/10/07 00:35:20;;;;;;;1.75;0.90;;;;;;;9.06;100.00;101399.88;5255231;28;20031;-77
2021/10/07 00:40:39;;;;;;;1.70;0.90;;;;;;;8.99;100.00;101400.88;5254836;28;20055;-74
2021/10/07 00:43:09;;;;;;;2.47;1.00;;;;;;;8.90;100.00;101400.16;5255200;28;20024;-76
2021/10/07 00:45:40;;;;;;;4.85;1.20;;;;;;;8.78;100.00;101406.44;5253634;28;20106;-76
2021/10/07 00:48:10;;;;;;;1.60;0.98;;;;;;;8.65;100.00;101409.22;5258945;28;20119;-77
2021/10/07 00:50:40;;;;;;;1.52;0.85;;;;;;;8.76;100.00;101417.75;5255045;28;20017;-75
2021/10/07 00:53:12;;;;;;;2.20;1.08;;;;;;;8.68;100.00;101415.25;5257076;28;20505;-78
2021/10/07 00:55:42;;;;;;;1.42;0.90;;;;;;;8.76;100.00;101420.34;5255563;28;20020;-75
2021/10/07 00:58:14;;;;;;;1.58;0.90;;;;;;;8.76;100.00;101417.75;5249697;28;20032;-75
2021/10/07 01:00:44;;;;;;;1.40;0.95;;;;;;;8.78;100.00;101427.28;5241863;28;20024;-76
2021/10/07 01:03:15;;;;;;;1.95;1.13;;;;;;;8.88;100.00;101420.19;5254646;28;20101;-77
2021/10/07 01:05:46;;;;;;;4.00;1.20;;;;;;;8.86;100.00;101424.56;5253811;28;20020;-77
2021/10/07 01:08:16;;;;;;;2.58;1.00;;;;;;;8.82;100.00;101422.84;5262922;28;20056;-76
2021/10/07 01:10:46;;;;;;;2.80;1.08;;;;;;;8.65;100.00;101424.84;5254445;28;20024;-77
2021/10/07 01:13:17;;;;;;;2.13;1.30;;;;;;;8.58;100.00;101429.28;5252849;28;20211;-77
2021/10/07 01:15:47;;;;;;;3.72;1.48;;;;;;;8.41;100.00;101426.03;5248071;28;20020;-78
2021/10/07 01:18:17;;;;;;;2.75;1.20;;;;;;;8.54;100.00;101432.81;5251650;28;20028;-76
2021/10/07 01:20:47;;;;;;;1.60;0.93;;;;;;;8.55;100.00;101438.91;5248757;28;20051;-78
2021/10/07 01:23:18;;;;;;;2.78;1.15;;;;;;;8.54;100.00;101438.03;5252246;28;20385;-77
2021/10/07 01:25:48;;;;;;;2.78;1.00;;;;;;;8.39;100.00;101446.03;5247360;28;20024;-78
2021/10/07 01:28:19;;;;;;;1.00;0.90;;;;;;;8.43;100.00;101439.94;5216725;28;20025;-77
2021/10/07 01:30:49;;;;;;;2.35;1.27;;;;;;;8.49;100.00;101449.38;5229584;28;20064;-78
2021/10/07 01:33:19;;;;;;;4.60;1.40;;;;;;;8.57;100.00;101451.00;5285191;28;20084;-78
2021/10/07 01:35:49;;;;;;;3.97;1.15;;;;;;;8.50;100.00;101451.97;5261103;28;20271;-79
2021/10/07 01:38:20;;;;;;;2.40;1.20;;;;;;;8.56;100.00;101445.84;5265357;28;20073;-77
2021/10/07 01:40:50;;;;;;;3.13;1.30;;;;;;;8.56;100.00;101451.88;5284475;28;20027;-78
2021/10/07 01:43:20;;;;;;;1.50;1.02;;;;;;;8.59;100.00;101441.41;5267889;28;20171;-77
2021/10/07 01:45:51;;;;;;;2.85;1.20;;;;;;;8.49;100.00;101438.97;5282854;28;20270;-77
2021/10/07 01:48:22;;;;;;;3.00;1.17;;;;;;;8.39;100.00;101456.44;5267249;28;20108;-76
2021/10/07 01:50:52;;;;;;;2.22;1.33;;;;;;;8.50;100.00;101462.41;5282699;28;20077;-77
2021/10/07 01:53:23;;;;;;;3.70;1.08;;;;;;;8.45;100.00;101464.22;5282862;28;20073;-77
2021/10/07 01:55:53;;;;;;;1.67;1.10;;;;;;;8.37;100.00;101463.44;5277844;28;20031;-76
2021/10/07 01:58:25;;;;;;;3.05;1.13;;;;;;;8.35;100.00;101466.97;5277160;28;20035;-79
2021/10/07 02:00:55;;;;;;;2.60;1.20;;;;;;;8.53;100.00;101466.72;5263365;28;20028;-77
2021/10/07 02:03:25;;;;;;;3.08;1.20;;;;;;;8.37;100.00;101468.63;5284801;28;20032;-77
2021/10/07 02:05:56;;;;;;;2.35;1.35;;;;;;;8.48;100.00;101469.38;5276578;28;20027;-76
2021/10/07 02:08:27;;;;;;;1.63;1.17;;;;;;;8.38;100.00;101480.78;5263736;28;20513;-78
2021/10/07 02:10:57;;;;;;;3.05;1.00;;;;;;;8.29;100.00;101475.69;5281220;28;20093;-76
2021/10/07 02:13:27;;;;;;;3.10;1.45;;;;;;;8.22;100.00;101486.19;5278182;28;20084;-78
2021/10/07 02:16:00;;;;;;;2.10;1.08;;;;;;;8.24;100.00;101485.28;5265828;28;20024;-77
2021/10/07 02:18:31;;;;;;;4.03;1.63;;;;;;;8.45;100.00;101489.38;5267603;28;20028;-79
2021/10/07 02:21:02;;;;;;;1.70;1.10;;;;;;;8.48;100.00;101498.03;5281112;28;20026;-79
2021/10/07 02:23:32;;;;;;;2.28;1.20;;;;;;;8.58;100.00;101502.22;5265094;28;20109;-76
2021/10/07 02:26:03;;;;;;;5.82;1.58;;;;;;;8.52;100.00;101501.47;5282888;28;20036;-76
2021/10/07 02:28:33;;;;;;;2.38;1.20;;;;;;;8.53;100.00;101504.03;5279822;28;20019;-78
2021/10/07 02:31:03;;;;;;;3.17;1.17;;;;;;;8.39;100.00;101505.09;5282203;28;20063;-78
2021/10/07 02:33:34;;;;;;;2.45;1.30;;;;;;;8.32;100.00;101506.03;5270546;28;20039;-79
2021/10/07 02:36:04;;;;;;;2.08;1.33;;;;;;;8.37;100.00;101512.91;5249072;28;20046;-78
2021/10/07 02:38:34;;;;;;;3.85;1.50;;;;;;;8.35;100.00;101513.84;5256702;28;20032;-78
2021/10/07 02:41:05;;;;;;;2.42;1.60;;;;;;;8.10;100.00;101513.22;5256440;28;20079;-78
2021/10/07 02:43:35;;;;;;;2.95;1.10;;;;;;;7.82;100.00;101509.16;5256711;28;20046;-79
2021/10/07 02:46:05;;;;;;;2.55;1.27;;;;;;;7.62;100.00;101518.88;5255135;28;20031;-79
2021/10/07 02:48:36;;;;;;;2.92;1.30;;;;;;;7.73;100.00;101517.03;5256617;28;20407;-78
2021/10/07 02:51:06;;;;;;;1.35;1.10;;;;;;;7.84;100.00;101520.41;5274745;28;20034;-78
2021/10/07 02:53:37;;;;;;;2.05;1.35;;;;;;;7.84;100.00;101519.56;5274875;28;20064;-76
2021/10/07 02:56:07;;;;;;;2.30;1.13;;;;;;;7.59;100.00;101526.72;5273121;28;20016;-76
2021/10/07 02:58:38;;;;;;;2.03;1.20;;;;;;;7.66;100.00;101520.56;5263112;28;20019;-77
2021/10/07 03:01:08;;;;;;;1.92;1.00;;;;;;;7.82;100.00;101531.69;5273529;28;20479;-76
2021/10/07 03:03:38;;;;;;;3.72;1.40;;;;;;;8.03;100.00;101540.16;5271098;28;20020;-75
2021/10/07 03:06:08;;;;;;;3.45;1.30;;;;;;;8.04;100.00;101535.84;5261908;28;20477;-76
2021/10/07 03:08:39;;;;;;;4.18;1.30;;;;;;;8.10;100.00;101540.97;5269577;28;20077;-76
2021/10/07 03:11:09;;;;;;;5.20;1.48;;;;;;;8.03;100.00;101547.97;5264551;28;20544;-78
2021/10/07 03:13:39;;;;;;;1.80;1.20;;;;;;;8.03;100.00;101544.53;5268006;28;20036;-77
2021/10/07 03:16:10;;;;;;;2.72;1.45;;;;;;;8.00;100.00;101549.72;5268131;28;20020;-78
2021/10/07 03:18:40;;;;;;;3.97;1.50;;;;;;;8.18;100.00;101563.47;5262602;28;20553;-76
2021/10/07 03:21:10;;;;;;;3.33;1.20;;;;;;;7.93;100.00;101561.09;5266448;28;20015;-76
2021/10/07 03:23:41;;;;;;;3.60;1.50;;;;;;;7.79;100.00;101569.03;5250821;28;20030;-77
2021/10/07 03:26:11;;;;;;;4.75;1.30;;;;;;;7.90;100.00;101564.56;5271573;28;20035;-78
2021/10/07 03:28:41;;;;;;;2.45;1.08;;;;;;;7.77;100.00;101576.00;5244533;28;20031;-77
2021/10/07 03:31:12;;;;;;;4.95;1.63;;;;;;;7.65;100.00;101576.06;5267410;28;20752;-78
2021/10/07 03:33:42;;;;;;;2.08;1.35;;;;;;;7.47;100.00;101573.63;5248893;28;20103;-79
2021/10/07 03:36:12;;;;;;;2.60;1.50;;;;;;;7.57;100.00;101585.69;5252624;28;20020;-77
2021/10/07 03:38:43;;;;;;;2.10;1.27;;;;;;;7.35;100.00;101584.09;5251981;28;20025;-76
2021/10/07 03:41:13;;;;;;;2.58;1.10;;;;;;;7.37;100.00;101589.28;5251505;28;20029;-77
2021/10/07 03:43:43;;;;;;;1.95;1.25;;;;;;;7.67;100.00;101595.13;5254112;28;20020;-76
2021/10/07 03:46:14;;;;;;;2.65;1.23;;;;;;;7.35;100.00;101591.88;5251096;28;20077;-78
2021/10/07 03:48:44;;;;;;;3.47;1.30;;;;;;;7.33;100.00;101593.66;5255093;28;20503;-77
2021/10/07 03:51:15;;;;;;;4.47;1.20;;;;;;;7.30;100.00;101603.19;5254056;28;20031;-78
2021/10/07 03:53:45;;;;;;;2.10;1.30;;;;;;;7.20;100.00;101604.13;5249368;28;20024;-77
2021/10/07 03:56:16;;;;;;;2.70;1.20;;;;;;;7.19;100.00;101605.00;5254416;28;20020;-78
2021/10/07 03:58:46;;;;;;;1.75;1.33;;;;;;;7.01;100.00;101614.63;5237861;28;20019;-78
2021/10/07 04:01:16;;;;;;;2.58;1.40;;;;;;;6.97;100.00;101615.50;5253598;28;20024;-78
2021/10/07 04:03:47;;;;;;;4.10;1.20;;;;;;;7.11;100.00;101614.56;5247779;28;20020;-76
2021/10/07 04:06:17;;;;;;;2.63;1.40;;;;;;;7.09;100.00;101611.09;5249883;28;20089;-77
2021/10/07 04:08:47;;;;;;;3.00;1.30;;;;;;;7.47;100.00;101606.53;5249417;28;20115;-77
2021/10/07 04:11:19;;;;;;;1.73;1.25;;;;;;;7.59;100.00;101622.97;5257112;28;20035;-78
2021/10/07 04:13:50;;;;;;;1.77;1.13;;;;;;;7.37;100.00;101621.34;5256226;28;20040;-77
2021/10/07 04:16:20;;;;;;;2.25;1.20;;;;;;;7.21;100.00;101629.25;5255558;28;20178;-76
2021/10/07 04:18:50;;;;;;;2.45;1.10;;;;;;;7.12;100.00;101633.63;5244732;28;20036;-76
2021/10/07 04:21:23;;;;;;;2.67;1.48;;;;;;;7.05;100.00;101638.00;5257447;28;20064;-76
2021/10/07 04:23:53;;;;;;;2.15;1.13;;;;;;;7.08;100.00;101642.31;5254443;28;20028;-76
2021/10/07 04:26:24;;;;;;;1.98;1.05;;;;;;;7.19;100.00;101650.91;5257609;28;20502;-77
2021/10/07 04:28:54;;;;;;;2.08;1.10;;;;;;;7.27;100.00;101641.38;5250661;28;20036;-76
2021/10/07 04:31:24;;;;;;;4.05;1.50;;;;;;;6.99;100.00;101647.53;5264762;28;20512;-77
2021/10/07 04:33:55;;;;;;;2.53;1.45;;;;;;;6.99;100.00;101658.81;5284104;28;20386;-75
2021/10/07 04:36:25;;;;;;;6.60;2.60;;;;;;;7.02;100.00;101658.81;5297539;28;20093;-79
2021/10/07 04:38:55;;;;;;;5.65;2.20;;;;;;;6.94;100.00;101663.16;5281890;28;20034;-77
2021/10/07 04:41:25;;;;;;;3.42;1.85;;;;;;;7.13;100.00;101666.56;5279981;28;20016;-76
2021/10/07 04:43:56;;;;;;;3.63;1.98;;;;;;;7.03;100.00;101676.13;5280229;28;20035;-78
2021/10/07 04:46:26;;;;;;;3.80;1.75;;;;;;;7.25;100.00;101674.31;5280541;28;20039;-77
2021/10/07 04:48:56;;;;;;;3.55;1.73;;;;;;;7.17;100.00;101679.53;5283428;28;20439;-78
2021/10/07 04:51:27;;;;;;;2.90;1.75;;;;;;;7.03;100.00;101676.13;5282034;28;20024;-77
2021/10/07 04:53:57;;;;;;;2.42;1.50;;;;;;;6.97;100.00;101680.47;5282525;28;20040;-77
2021/10/07 04:56:27;;;;;;;2.78;1.55;;;;;;;6.76;100.00;101688.34;5286589;28;20028;-76
2021/10/07 04:58:58;;;;;;;2.33;1.27;;;;;;;6.96;100.00;101684.78;5292462;28;20081;-78
2021/10/07 05:01:28;;;;;;;1.88;1.20;;;;;;;7.08;100.00;101689.09;5295025;28;20051;-78
2021/10/07 05:03:59;;;;;;;1.92;1.00;;;;;;;7.10;100.00;101692.56;5290189;28;20035;-77
2021/10/07 05:06:30;;;;;;;1.15;0.88;;;;;;;7.19;100.00;101683.00;5290890;28;20028;-78
2021/10/07 05:09:00;;;;;;;1.15;0.90;;;;;;;7.39;100.00;101691.56;5281353;28;20035;-78
2021/10/07 05:11:31;;;;;;;1.92;1.00;;;;;;;7.22;100.00;101692.50;5282836;28;20056;-77
2021/10/07 05:14:01;;;;;;;1.63;1.00;;;;;;;7.12;100.00;101696.88;5281978;28;20330;-78
2021/10/07 05:16:31;;;;;;;3.65;1.10;;;;;;;6.89;100.00;101700.41;5283831;28;20020;-78
2021/10/07 05:19:02;;;;;;;2.58;1.13;;;;;;;6.67;100.00;101706.53;5282857;28;20495;-76
2021/10/07 05:21:32;;;;;;;1.27;1.10;;;;;;;6.65;100.00;101718.66;5284111;28;20023;-78
2021/10/07 05:24:03;;;;;;;3.15;1.25;;;;;;;6.74;100.00;101710.84;5282455;28;20019;-78
2021/10/07 05:26:33;;;;;;;2.58;1.65;;;;;;;6.81;100.00;101709.97;5281744;28;20146;-78
2021/10/07 05:29:03;;;;;;;2.38;1.45;;;;;;;6.90;100.00;101710.81;5296929;28;20056;-75
2021/10/07 05:31:34;;;;;;;5.78;1.77;;;;;;;7.02;100.00;101712.50;5298052;28;20030;-78
2021/10/07 05:34:04;;;;;;;2.78;1.50;;;;;;;6.96;100.00;101720.31;5297891;28;20042;-77
2021/10/07 05:36:34;;;;;;;2.97;1.20;;;;;;;6.84;100.00;101717.75;5290281;28;20028;-77
2021/10/07 05:39:04;;;;;;;2.58;1.50;;;;;;;6.72;100.00;101722.97;5297140;28;20031;-77
2021/10/07 05:41:35;;;;;;;2.00;1.13;;;;;;;6.78;100.00;101726.41;5298816;28;20023;-77
2021/10/07 05:44:10;;;;;;;3.78;1.40;;;;;;;6.81;100.00;101739.44;5298199;28;20110;-76
2021/10/07 05:46:40;;;;;;;2.97;1.50;;;;;;;6.88;100.00;101753.25;5294881;28;20027;-76
2021/10/07 05:49:10;;;;;;;2.03;1.20;;;;;;;6.98;100.00;101749.78;5297833;28;20027;-76
2021/10/07 05:51:41;;;;;;;3.85;1.20;;;;;;;6.81;100.00;101751.53;5296700;28;20035;-76
2021/10/07 05:54:11;;;;;;;2.88;1.20;;;;;;;6.61;100.00;101753.28;5296689;28;20020;-77
2021/10/07 05:56:42;;;;;;;1.55;1.05;;;;;;;6.79;100.00;101758.47;5297546;28;20020;-76
2021/10/07 05:59:12;;;;;;;1.83;1.00;;;;;;;7.01;100.00;101754.97;5298495;28;20278;-76
2021/10/07 06:01:43;;;;;;;2.22;1.25;;;;;;;6.92;100.00;101765.38;5297712;28;20027;-75
2021/10/07 06:04:13;;;;;;;2.83;1.65;;;;;;;6.97;100.00;101768.84;5297678;28;20023;-76
2021/10/07 06:06:45;;;;;;;2.13;1.40;;;;;;;6.98;100.00;101770.56;5296004;28;20450;-76
2021/10/07 06:09:15;;;;;;;2.33;1.63;;;;;;;6.98;100.00;101776.63;5285788;28;20031;-76
2021/10/07 06:11:45;;;;;;;4.38;1.90;;;;;;;7.12;100.00;101768.81;5287401;28;20042;-76
2021/10/07 06:14:17;;;;;;;3.90;2.50;;;;;;;7.31;100.00;101782.59;5285450;28;20519;-77
2021/10/07 06:16:50;;;;;;;5.22;3.38;;;;;;;7.29;100.00;101775.66;5287584;28;20015;-78
2021/10/07 06:19:23;;;;;;;4.80;3.08;;;;;;;7.34;100.00;101781.75;5284655;28;20031;-77
2021/10/07 06:21:53;;;;;;;6.65;3.55;;;;;;;7.35;100.00;101781.72;5286540;28;20123;-77
2021/10/07 06:24:23;;;;;;;6.65;3.38;;;;;;;7.45;100.00;101785.16;5286579;28;20043;-77
2021/10/07 06:26:54;;;;;;;5.95;3.25;;;;;;;7.39;100.00;101790.38;5286891;28;20046;-76
2021/10/07 06:29:24;;;;;;;5.07;3.45;;;;;;;7.49;100.00;101799.91;5296723;28;20046;-76
2021/10/07 06:31:55;;;;;;;5.78;3.70;;;;;;;7.51;100.00;101796.41;5293539;28;20047;-77
2021/10/07 06:34:25;;;;;;;7.65;3.90;;;;;;;7.71;100.00;101806.72;5287527;28;20031;-77
2021/10/07 06:36:55;;;;;;;7.38;4.30;;;;;;;7.88;100.00;101808.38;5285726;28;20027;-76
2021/10/07 06:39:26;;;;;;;6.10;4.00;;;;;;;7.96;100.00;101806.59;5277923;28;20020;-77
2021/10/07 06:41:56;;;;;;;6.85;4.43;;;;;;;7.95;100.00;101810.09;5276356;28;20036;-76
2021/10/07 06:44:26;;;;;;;6.72;4.22;;;;;;;8.08;100.00;101814.31;5278091;28;20027;-78
2021/10/07 06:46:56;;;;;;;6.95;4.35;;;;;;;8.05;100.00;101814.34;5277598;28;20387;-77
2021/10/07 06:49:27;;;;;;;8.93;4.63;;;;;;;8.29;100.00;101814.25;5278633;28;20132;-76
2021/10/07 06:51:57;;;;;;;9.43;5.15;;;;;;;8.31;100.00;101820.31;5276481;28;20042;-76
2021/10/07 06:54:27;;;;;;;9.68;5.07;;;;;;;8.32;100.00;101826.38;5277856;28;20028;-76
2021/10/07 06:56:58;;;;;;;8.52;5.15;;;;;;;8.30;100.00;101818.59;5278161;28;20038;-77
2021/10/07 06:59:28;;;;;;;9.50;5.25;;;;;;;8.57;100.00;101815.78;5274853;28;20035;-77
2021/10/07 07:01:58;;;;;;;10.88;5.60;;;;;;;8.64;100.00;101812.25;5278973;28;20031;-77
2021/10/07 07:04:29;;;;;;;8.05;5.38;;;;;;;8.64;100.00;101825.28;5287690;28;20032;-77
2021/10/07 07:06:59;;;;;;;8.07;5.32;;;;;;;8.89;100.00;101829.41;5285641;28;20506;-76
2021/10/07 07:09:29;;;;;;;8.95;5.07;;;;;;;8.95;100.00;101825.88;5278301;28;20054;-77
2021/10/07 07:12:00;;;;;;;8.10;4.80;;;;;;;8.93;100.00;101828.50;5277336;28;20134;-78
2021/10/07 07:14:32;;;;;;;10.18;5.25;;;;;;;9.34;100.00;101836.81;5278282;28;20251;-76
2021/10/07 07:17:02;;;;;;;10.70;5.40;;;;;;;9.54;100.00;101843.53;5276639;28;20011;-77
2021/10/07 07:19:32;;;;;;;7.93;4.82;;;;;;;9.73;100.00;101846.78;5278612;28;20027;-77
2021/10/07 07:22:03;;;;;;;8.68;4.50;;;;;;;10.00;100.00;101836.03;5276259;28;20020;-76
2021/10/07 07:24:33;;;;;;;7.95;3.92;;;;;;;10.95;100.00;101831.09;5278037;28;20091;-76
2021/10/07 07:27:04;;;;;;;4.97;3.10;;;;;;;12.94;93.95;101829.47;5277743;28;20024;-77
2021/10/07 07:29:34;;;;;;;5.22;2.78;;;;;;;14.32;87.73;101829.06;5286407;28;20467;-78
2021/10/07 07:32:05;;;;;;;3.75;2.40;;;;;;;14.55;87.84;101836.22;5268592;28;20038;-78
2021/10/07 07:34:35;;;;;;;3.10;2.03;;;;;;;15.42;82.67;101828.88;5286937;28;20097;-78
2021/10/07 07:37:05;;;;;;;3.10;2.20;;;;;;;16.59;75.22;101835.81;5283622;28;20045;-77
2021/10/07 07:39:38;;;;;;;3.35;1.92;;;;;;;16.51;75.03;101832.63;5277377;28;20131;-77
2021/10/07 07:42:08;;;;;;;3.28;2.00;;;;;;;18.35;71.45;101831.56;5283943;28;20482;-78
2021/10/07 07:44:40;;;;;;;3.30;1.80;;;;;;;18.69;69.98;101831.66;5286540;28;20086;-77
2021/10/07 07:47:10;;;;;;;3.45;2.00;;;;;;;19.78;67.19;101828.63;5275376;28;20314;-77
2021/10/07 07:49:40;;;;;;;3.30;1.90;;;;;;;19.06;68.78;101822.66;5279245;28;20059;-77
2021/10/07 07:52:10;;;;;;;4.05;1.70;;;;;;;18.79;70.33;101825.81;5275162;28;20266;-77
2021/10/07 07:54:41;;;;;;;2.58;1.77;;;;;;;19.22;68.42;101828.06;5279302;28;20134;-77
2021/10/07 07:57:11;;;;;;;3.80;1.75;;;;;;;18.77;70.88;101838.28;5273996;28;20590;-78
2021/10/07 07:59:41;;;;;;;3.67;1.70;;;;;;;19.57;68.46;101827.97;5287800;28;20027;-77
2021/10/07 08:02:15;;;;;;;3.20;1.70;;;;;;;20.31;65.50;101830.09;5288429;28;20277;-77
2021/10/07 08:04:46;;;;;;;2.70;1.75;;;;;;;20.84;65.08;101823.47;5287744;28;20277;-77
2021/10/07 08:07:16;;;;;;;3.70;1.70;;;;;;;19.57;68.02;101835.03;5284206;28;20390;-77
2021/10/07 08:09:47;;;;;;;3.10;1.75;;;;;;;19.01;68.41;101837.94;5278219;28;20035;-78
2021/10/07 08:12:17;;;;;;;4.73;1.80;;;;;;;17.80;73.80;101843.78;5276516;28;20126;-77
2021/10/07 08:14:48;;;;;;;4.65;1.63;;;;;;;19.80;68.23;101848.81;5277114;28;20326;-77
2021/10/07 08:17:18;;;;;;;2.40;1.33;;;;;;;20.14;66.51;101838.13;5281477;28;20027;-78
2021/10/07 08:19:49;;;;;;;3.27;1.70;;;;;;;21.25;64.16;101842.31;5287051;28;20036;-77
2021/10/07 08:22:19;;;;;;;2.95;1.40;;;;;;;21.16;64.56;101862.34;5287092;28;20277;-77
2021/10/07 08:24:49;;;;;;;2.17;1.50;;;;;;;21.47;63.57;101853.38;5287262;28;20172;-77
2021/10/07 08:27:20;;;;;;;2.90;1.43;;;;;;;20.27;67.77;101860.41;5286470;28;20103;-77
2021/10/07 08:29:50;;;;;;;3.80;1.88;;;;;;;19.27;68.54;101855.22;5288777;28;20278;-77
2021/10/07 08:32:21;;;;;;;2.38;1.50;;;;;;;21.40;64.90;101849.41;5290458;28;20058;-78
2021/10/07 08:34:51;;;;;;;2.47;1.48;;;;;;;20.60;63.91;101855.88;5290758;28;20036;-78
2021/10/07 08:37:22;;;;;;;2.70;1.38;;;;;;;21.02;66.50;101859.63;5272388;28;20100;-77
2021/10/07 08:39:52;;;;;;;2.25;1.20;;;;;;;21.32;63.74;101854.31;5279663;28;20032;-78
2021/10/07 08:42:22;;;;;;;3.13;1.17;;;;;;;21.01;66.06;101854.38;5273598;28;20031;-78
2021/10/07 08:44:53;;;;;;;1.70;1.00;;;;;;;22.45;62.66;101846.28;5289464;28;20494;-77
2021/10/07 08:47:25;;;;;;;2.58;1.30;;;;;;;21.15;66.38;101857.97;5290108;28;20031;-78
2021/10/07 08:49:55;;;;;;;2.63;0.90;;;;;;;20.88;66.22;101872.00;5289507;28;20028;-78
2021/10/07 08:52:25;;;;;;;2.13;1.23;;;;;;;20.11;66.73;101875.47;5288076;28;20019;-78
2021/10/07 08:54:55;;;;;;;2.13;1.10;;;;;;;20.04;67.55;101868.78;5289408;28;20023;-77
2021/10/07 08:57:26;;;;;;;2.53;1.30;;;;;;;18.86;71.65;101866.97;5289659;28;20265;-77
2021/10/07 08:59:58;;;;;;;3.05;1.30;;;;;;;17.87;77.57;101873.47;5289455;28;20289;-77
2021/10/07 09:02:31;;;;;;;2.25;1.10;;;;;;;17.78;74.48;101876.50;5289542;28;20281;-77
2021/10/07 09:05:10;;;;;;;2.30;1.10;;;;;;;17.62;74.67;101880.78;5284812;28;20036;-77
2021/10/07 09:08:00;;;;;;;2.42;1.10;;;;;;;16.89;77.36;101879.47;5278823;28;20031;-76
2021/10/07 09:10:39;;;;;;;3.90;1.38;;;;;;;16.09;81.30;101878.25;5271368;28;20023;-77
2021/10/07 09:13:15;;;;;;;2.40;1.15;;;;;;;16.57;78.05;101885.16;5285543;28;20483;-77
2021/10/07 09:15:50;;;;;;;3.08;1.30;;;;;;;16.42;80.72;101877.84;5283612;28;20065;-77
2021/10/07 09:18:21;;;;;;;2.90;1.20;;;;;;;16.37;81.61;101882.44;5286341;28;20030;-77
2021/10/07 09:20:53;;;;;;;1.77;1.27;;;;;;;16.08;83.13;101882.66;5286127;28;20391;-76
2021/10/07 09:23:28;;;;;;;2.33;1.13;;;;;;;16.36;81.81;101885.16;5281168;28;20023;-77
2021/10/07 09:26:12;;;;;;;3.38;1.10;;;;;;;16.20;82.83;101886.63;5286362;28;20036;-76
2021/10/07 09:28:56;;;;;;;3.50;1.50;;;;;;;16.43;82.21;101886.63;5266388;28;20056;-76
2021/10/07 09:31:29;;;;;;;3.15;0.85;;;;;;;16.43;80.34;101891.91;5275080;28;20089;-77
2021/10/07 09:34:05;;;;;;;1.67;1.00;;;;;;;16.17;80.89;101887.59;5285811;28;20894;-77
2021/10/07 09:36:35;;;;;;;1.63;0.70;;;;;;;16.71;79.00;101882.00;5272323;28;20437;-77
2021/10/07 09:39:07;;;;;;;1.20;0.90;;;;;;;16.55;79.38;101887.00;5281524;28;20035;-77
2021/10/07 09:41:37;;;;;;;3.65;0.80;;;;;;;16.08;82.29;101884.44;5269658;28;20030;-77
2021/10/07 09:44:08;;;;;;;3.53;0.73;;;;;;;15.76;81.85;101879.47;5280145;28;20410;-76
2021/10/07 09:46:45;;;;;;;2.45;0.63;;;;;;;16.48;78.62;101880.25;5282539;28;20293;-75
2021/10/07 09:49:18;;;;;;;1.83;0.55;;;;;;;16.55;78.82;101889.66;5285096;28;20039;-77
2021/10/07 09:51:51;;;;;;;1.15;0.60;;;;;;;16.47;80.14;101877.69;5270767;28;20043;-77
2021/10/07 09:54:27;;;;;;;2.47;0.80;;;;;;;16.34;80.37;101885.19;5282445;28;20040;-77
2021/10/07 09:57:00;;;;;;;1.08;0.80;;;;;;;16.58;80.27;101886.88;5276946;28;20032;-76
2021/10/07 09:59:33;;;;;;;1.25;0.60;;;;;;;16.68;79.26;101884.75;5274584;28;20024;-76
2021/10/07 10:02:03;;;;;;;2.13;0.60;;;;;;;16.36;78.73;101896.56;5292919;28;20519;-78
2021/10/07 10:04:34;;;;;;;1.75;0.90;;;;;;;16.31;79.69;101894.97;5298326;28;20036;-77
2021/10/07 10:07:04;;;;;;;1.33;0.50;;;;;;;16.42;81.16;101896.31;5294797;28;20651;-75
2021/10/07 10:09:35;;;;;;;1.58;0.80;;;;;;;16.54;81.65;101895.00;5290219;28;20038;-76
2021/10/07 10:12:06;;;;;;;2.38;0.68;;;;;;;16.63;80.57;101900.78;5287230;28;20044;-76
2021/10/07 10:14:36;;;;;;;3.45;1.02;;;;;;;16.42;82.72;101903.41;5287405;28;20027;-75
2021/10/07 10:17:09;;;;;;;2.67;0.90;;;;;;;16.69;79.82;101905.81;5284206;28;20011;-75
2021/10/07 10:19:39;;;;;;;1.23;0.75;;;;;;;16.46;80.17;101908.50;5290591;28;20024;-77
2021/10/07 10:22:10;;;;;;;1.58;0.90;;;;;;;16.53;79.55;101907.34;5292007;28;20065;-76
2021/10/07 10:24:41;;;;;;;1.73;0.80;;;;;;;16.70;79.47;101901.41;5288358;28;20389;-76
2021/10/07 10:27:11;;;;;;;2.58;0.90;;;;;;;15.93;80.76;101912.25;5291960;28;20036;-76
2021/10/07 10:29:42;;;;;;;1.75;0.75;;;;;;;16.17;80.55;101906.06;5282503;28;20393;-77
2021/10/07 10:32:12;;;;;;;1.70;0.90;;;;;;;16.14;80.03;101910.59;5290747;28;20094;-76
2021/10/07 10:34:45;;;;;;;2.92;1.00;;;;;;;16.09;81.01;101910.78;5292607;28;20118;-76
2021/10/07 10:37:15;;;;;;;1.70;0.70;;;;;;;16.13;81.82;101909.75;5293151;28;20032;-76
2021/10/07 10:39:47;;;;;;;2.47;1.00;;;;;;;16.01;83.86;101914.59;5295718;28;20859;-76
2021/10/07 10:42:17;;;;;;;2.75;0.82;;;;;;;16.06;81.01;101917.94;5291563;28;20019;-77
2021/10/07 10:44:50;;;;;;;1.08;0.77;;;;;;;15.82;82.60;101919.66;5278842;28;20046;-76
2021/10/07 10:47:31;;;;;;;2.10;0.90;;;;;;;15.90;82.49;101917.59;5281964;28;20035;-76
2021/10/07 10:50:01;;;;;;;1.80;0.85;;;;;;;16.13;82.78;101915.00;5288008;28;20040;-76
2021/10/07 10:52:42;;;;;;;1.55;1.00;;;;;;;15.73;84.20;101917.34;5294854;28;20027;-77
2021/10/07 10:55:17;;;;;;;1.95;1.05;;;;;;;15.92;83.29;101921.09;5285950;28;20531;-78
2021/10/07 10:57:59;;;;;;;4.03;1.02;;;;;;;16.10;84.18;101919.53;5293117;28;20011;-76
2021/10/07 11:00:34;;;;;;;1.90;0.98;;;;;;;16.01;83.79;101909.34;5283083;28;20020;-76
2021/10/07 11:03:04;;;;;;;;;;;;;;;15.90;84.85;101917.59;5290624;28;20027;-76
2021/10/07 11:05:41;;;;;;;4.35;1.13;;;;;;;16.26;84.57;101921.56;5296835;28;19942;-76
2021/10/07 11:08:11;;;;;;;1.90;1.10;;;;;;;16.30;83.22;101917.88;5284051;28;20028;-76
2021/10/07 11:10:44;;;;;;;2.07;1.10;;;;;;;16.21;83.94;101917.38;5290358;28;20073;-77
2021/10/07 11:13:21;;;;;;;3.03;1.40;;;;;;;16.30;84.86;101923.16;5285393;28;20591;-75
2021/10/07 11:16:01;;;;;;;1.77;1.05;;;;;;;16.47;85.91;101920.78;5287314;28;20102;-77
2021/10/07 11:18:35;;;;;;;1.85;1.10;;;;;;;16.67;83.88;101926.16;5284222;28;20036;-76
2021/10/07 11:21:17;;;;;;;4.30;1.45;;;;;;;16.92;83.91;101932.16;5284846;28;20036;-76
2021/10/07 11:23:53;;;;;;;1.88;1.30;;;;;;;16.78;81.56;101931.88;5287225;28;20154;-76
2021/10/07 11:26:35;;;;;;;3.10;1.60;;;;;;;16.96;81.52;101939.06;5291383;28;20479;-77
2021/10/07 11:29:08;;;;;;;2.50;1.50;;;;;;;16.77;81.13;101939.84;5261798;28;20034;-76
2021/10/07 11:31:44;;;;;;;3.03;1.20;;;;;;;16.47;81.50;101936.63;5295147;28;20135;-76
2021/10/07 11:34:14;;;;;;;3.78;1.50;;;;;;;16.43;82.72;101940.28;5288002;28;20027;-75
2021/10/07 11:36:44;;;;;;;2.45;1.00;;;;;;;16.53;83.75;101930.25;5276404;28;20076;-77
2021/10/07 11:39:16;;;;;;;1.33;0.98;;;;;;;16.65;85.67;101928.00;5284108;28;20031;-77
2021/10/07 11:41:47;;;;;;;1.25;0.80;;;;;;;16.52;84.40;101934.66;5288994;28;20027;-75
2021/10/07 11:44:17;;;;;;;2.92;1.20;;;;;;;16.66;83.68;101932.34;5281201;28;20024;-76
2021/10/07 11:46:51;;;;;;;2.17;0.98;;;;;;;16.68;82.31;101929.63;5282936;28;20024;-75